Etusivu
METAR-TAF:

METAR-TAF

Lentoasemat :

King Mswati III International Airport

Manzini, Swazimaa

Leveyspiiri: 26-21-24S, Pituuspiiri: 031-43-01E, korkeus merenpinnasta: 324 m

Tämänhetkinen sää

Tämä raportti tehtiin 2 tuntia ja 36 minuuttia sitten, kello 17.00 UTC
Tuuli 2 kn eri suunnista
Lämpötila 19°C
Kosteus 64%
Ilmanpaine 1022 hPa
Näkyvyys 10 km tai enemmän
ei pilviä alle 1500 m:ssä eikä cumulonimbus-pilviä

METAR: FDSK 221700Z VRB02KT CAVOK 19/12 Q1022 NOSIG

Aika: 21:36 (19:36 UTC)

Sääennuste

Tämä raportti tehtiin 12 tuntia ja 36 minuuttia sitten, kello 07.00 UTC
Ennuste voimassa 22. päivästä klo 09 UTC - 22. päivään klo 18 UTC
Tuuli 7 kn pohjoisesta/koillisesta
Näkyvyys 10 km tai enemmän
ei pilviä alle 1500 m:ssä eikä cumulonimbus-pilviä

TAF: FDSK 220700Z 2209/2218 02007KT CAVOK

Säähavainnot ja -ennusteet yli 4000 lentoasemalta (METAR- ja TAF-raportit).

Käytössä olevat sääasemat on merkitty karttaan keltaisilla ja punaisilla pisteillä.

Aseta hiiri pisteen päälle nähdäksesi sääaseman nimen.

Klikkaa sitten nähdäksesi säähavainnot ja -ennusteet.

Kartan vaihtaminen: klikkaa mustalla rastilla varustettuja vihreitä pisteitä, niin voit zoomata sisään; viivalla varustettua vihreää pistettä, niin voit zoomata ulos tai vihreitä nuolia, niin pääset viereisille kartoille.


METAR-TAF: